createdAt,value
2018-01-26T00:01:55.863Z,6.80
2018-01-26T00:04:25.855Z,6.80
2018-01-26T00:06:55.670Z,6.80
2018-01-26T00:09:28.783Z,6.80
2018-01-26T00:11:57.806Z,6.80
2018-01-26T00:14:26.875Z,6.70
2018-01-26T00:16:55.918Z,6.80
2018-01-26T00:19:24.934Z,6.80
2018-01-26T00:21:54.784Z,6.80
2018-01-26T00:24:23.794Z,6.70
2018-01-26T00:26:52.851Z,6.80
2018-01-26T00:29:21.871Z,6.70
2018-01-26T00:31:50.940Z,6.60
2018-01-26T00:34:20.155Z,6.60
2018-01-26T00:36:49.174Z,6.60
2018-01-26T00:39:18.192Z,6.60
2018-01-26T00:41:47.235Z,6.60
2018-01-26T00:44:16.270Z,6.60
2018-01-26T00:46:46.242Z,6.60
2018-01-26T00:49:15.258Z,6.50
2018-01-26T00:51:44.306Z,6.50
2018-01-26T00:54:13.332Z,6.50
2018-01-26T00:56:42.379Z,6.40
2018-01-26T00:59:12.222Z,6.50
2018-01-26T01:01:41.290Z,6.50
2018-01-26T01:04:12.017Z,6.60
2018-01-26T01:06:41.854Z,6.60
2018-01-26T01:09:10.895Z,6.50
2018-01-26T01:11:39.915Z,6.60
2018-01-26T01:14:10.835Z,6.60
2018-01-26T01:16:39.866Z,6.60
2018-01-26T01:19:08.930Z,6.70
2018-01-26T01:21:39.891Z,6.70
2018-01-26T01:24:09.714Z,6.70
2018-01-26T01:26:38.719Z,6.70
2018-01-26T01:29:07.774Z,6.70
2018-01-26T01:31:36.796Z,6.70
2018-01-26T01:34:12.665Z,6.70
2018-01-26T01:36:41.683Z,6.70
2018-01-26T01:39:10.711Z,6.70
2018-01-26T01:41:40.532Z,6.70
2018-01-26T01:44:10.301Z,6.70
2018-01-26T01:46:39.350Z,6.70
2018-01-26T01:49:17.032Z,6.70
2018-01-26T01:51:46.880Z,6.80
2018-01-26T01:54:15.895Z,6.70
2018-01-26T01:56:44.949Z,6.80
2018-01-26T01:59:13.957Z,6.80
2018-01-26T02:01:43.023Z,6.80
2018-01-26T02:04:12.811Z,6.70
2018-01-26T02:06:41.834Z,6.70
2018-01-26T02:09:11.647Z,6.70
2018-01-26T02:11:41.431Z,6.70
2018-01-26T02:14:10.479Z,6.60
2018-01-26T02:16:39.497Z,6.70
2018-01-26T02:19:08.562Z,6.70
2018-01-26T02:21:37.579Z,6.80
2018-01-26T02:24:30.118Z,6.80
2018-01-26T02:27:01.123Z,6.80
2018-01-26T02:29:30.189Z,6.80
2018-01-26T02:31:59.215Z,6.80
2018-01-26T02:34:28.278Z,6.80
2018-01-26T02:36:57.321Z,6.90
2018-01-26T02:39:26.398Z,6.90
2018-01-26T02:41:55.422Z,6.90
2018-01-26T02:44:24.438Z,6.90
2018-01-26T02:46:53.496Z,6.90
2018-01-26T02:49:22.521Z,6.90
2018-01-26T02:51:51.582Z,6.80
2018-01-26T02:54:20.597Z,6.90
2018-01-26T02:56:49.646Z,6.90
2018-01-26T02:59:19.455Z,6.90
2018-01-26T03:01:49.277Z,6.80
2018-01-26T03:04:18.285Z,6.80
2018-01-26T03:06:47.357Z,6.90
2018-01-26T03:09:18.077Z,6.80
2018-01-26T03:11:47.904Z,6.80
2018-01-26T03:14:17.726Z,6.80
2018-01-26T03:16:46.768Z,6.80
2018-01-26T03:19:15.829Z,6.80
2018-01-26T03:21:44.845Z,6.80
2018-01-26T03:24:13.907Z,6.80
2018-01-26T03:26:42.930Z,6.80
2018-01-26T03:29:11.995Z,6.90
2018-01-26T03:31:41.025Z,6.90
2018-01-26T03:34:10.148Z,6.90
2018-01-26T03:36:39.170Z,6.90
2018-01-26T03:39:08.239Z,6.90
2018-01-26T03:41:37.258Z,6.90
2018-01-26T03:44:06.273Z,6.90
2018-01-26T03:46:35.322Z,6.90
2018-01-26T03:49:05.107Z,6.70
2018-01-26T03:51:34.159Z,6.70
2018-01-26T03:54:03.184Z,6.70
2018-01-26T03:56:34.208Z,6.80
2018-01-26T03:59:03.252Z,6.70
2018-01-26T04:01:33.079Z,6.70
2018-01-26T04:04:02.863Z,6.60
2018-01-26T04:06:38.635Z,6.60
2018-01-26T04:09:08.415Z,6.60
2018-01-26T04:11:37.484Z,6.60
2018-01-26T04:14:07.443Z,6.60
2018-01-26T04:16:36.463Z,6.60
2018-01-26T04:19:06.279Z,6.60
2018-01-26T04:21:36.287Z,6.60
2018-01-26T04:24:06.097Z,6.60
2018-01-26T04:26:35.115Z,6.60
2018-01-26T04:29:04.167Z,6.60
2018-01-26T04:31:33.189Z,6.50
2018-01-26T04:34:02.241Z,6.50
2018-01-26T04:36:31.258Z,6.50
2018-01-26T04:39:01.079Z,6.50
2018-01-26T04:41:30.953Z,6.50
2018-01-26T04:44:00.007Z,6.40
2018-01-26T04:46:29.026Z,6.50
2018-01-26T04:48:58.083Z,6.40
2018-01-26T04:51:28.078Z,6.30
2018-01-26T04:53:57.921Z,6.30
2018-01-26T04:56:26.947Z,6.30
2018-01-26T04:58:56.007Z,6.30
2018-01-26T05:01:25.034Z,6.30
2018-01-26T05:03:54.122Z,6.30
2018-01-26T05:06:23.143Z,6.20
2018-01-26T05:08:52.159Z,6.30
2018-01-26T05:11:27.790Z,6.10
2018-01-26T05:13:56.819Z,6.10
2018-01-26T05:16:25.870Z,6.20
2018-01-26T05:18:54.891Z,6.20
2018-01-26T05:21:23.984Z,6.20
2018-01-26T05:23:53.767Z,6.20
2018-01-26T05:26:22.818Z,6.10
2018-01-26T05:28:51.834Z,6.20
2018-01-26T05:31:21.821Z,6.20
2018-01-26T05:33:50.838Z,6.20
2018-01-26T05:36:19.886Z,6.10
2018-01-26T05:38:52.854Z,6.20
2018-01-26T05:41:21.908Z,6.10
2018-01-26T05:43:50.914Z,6.10
2018-01-26T05:46:19.965Z,6.10
2018-01-26T05:48:48.983Z,6.10
2018-01-26T05:51:19.015Z,6.00
2018-01-26T05:53:48.062Z,6.10
2018-01-26T05:56:17.844Z,6.10
2018-01-26T05:58:46.884Z,6.00
2018-01-26T06:01:15.899Z,6.10
2018-01-26T06:03:44.934Z,6.10
2018-01-26T06:06:13.956Z,6.20
2018-01-26T06:08:43.775Z,6.20
2018-01-26T06:11:12.802Z,6.20
2018-01-26T06:13:41.810Z,6.30
2018-01-26T06:16:10.867Z,6.20
2018-01-26T06:18:39.892Z,6.20
2018-01-26T06:21:08.951Z,6.20
2018-01-26T06:23:37.957Z,6.30
2018-01-26T06:26:07.013Z,6.30
2018-01-26T06:28:36.019Z,6.30
2018-01-26T06:31:05.067Z,6.30
2018-01-26T06:34:05.129Z,6.30
2018-01-26T06:36:34.212Z,6.30
2018-01-26T06:39:03.233Z,6.30
2018-01-26T06:41:32.283Z,6.30
2018-01-26T06:44:01.293Z,6.30
2018-01-26T06:46:31.111Z,6.40
2018-01-26T06:49:01.843Z,6.40
2018-01-26T06:51:31.658Z,6.40
2018-01-26T06:54:01.445Z,6.40
2018-01-26T06:56:30.498Z,6.40
2018-01-26T06:58:59.515Z,6.40
2018-01-26T07:01:28.528Z,6.50
2018-01-26T07:03:57.574Z,6.50
2018-01-26T07:06:26.582Z,6.40
2018-01-26T07:08:55.634Z,6.50
2018-01-26T07:11:25.424Z,6.50
2018-01-26T07:13:54.465Z,6.40
2018-01-26T07:16:23.491Z,6.40
2018-01-26T07:18:52.532Z,6.40
2018-01-26T07:21:21.601Z,6.50
2018-01-26T07:23:54.431Z,6.40
2018-01-26T07:26:23.789Z,6.40
2018-01-26T07:28:54.047Z,6.40
2018-01-26T07:31:30.373Z,6.40
2018-01-26T07:34:30.812Z,6.50
2018-01-26T07:50:51.414Z,6.70
2018-01-26T07:53:20.462Z,6.60
2018-01-26T07:55:49.491Z,6.70
2018-01-26T07:58:19.316Z,6.80
2018-01-26T08:00:48.322Z,6.80
2018-01-26T08:03:17.370Z,6.80
2018-01-26T08:05:47.315Z,6.80
2018-01-26T08:08:16.369Z,6.80
2018-01-26T08:10:45.409Z,6.80
2018-01-26T08:13:16.519Z,6.80
2018-01-26T08:15:45.528Z,6.80
2018-01-26T08:18:15.306Z,6.90
2018-01-26T08:20:44.352Z,6.90
2018-01-26T08:23:18.132Z,7.00
2018-01-26T08:25:47.976Z,7.10
2018-01-26T08:28:17.004Z,7.10
2018-01-26T08:30:46.056Z,7.30
2018-01-26T08:33:15.107Z,7.30
2018-01-26T08:35:47.635Z,7.30
2018-01-26T08:38:16.648Z,7.30
2018-01-26T08:40:45.707Z,7.30
2018-01-26T08:43:14.724Z,7.40
2018-01-26T08:45:43.807Z,7.50
2018-01-26T08:48:12.832Z,7.60
2018-01-26T08:50:41.840Z,7.90
2018-01-26T08:53:10.875Z,8.10
2018-01-26T08:55:39.902Z,8.40
2018-01-26T08:58:08.959Z,8.50
2018-01-26T09:00:37.983Z,8.70
2018-01-26T09:03:07.035Z,9.00
2018-01-26T09:05:36.820Z,9.30
2018-01-26T09:08:05.880Z,9.20
2018-01-26T09:10:34.900Z,9.40
2018-01-26T09:13:03.961Z,9.60
2018-01-26T09:15:34.541Z,10.30
2018-01-26T09:18:03.611Z,10.20
2018-01-26T09:20:32.647Z,10.80
2018-01-26T09:23:02.496Z,11.90
2018-01-26T09:25:31.578Z,11.80
2018-01-26T09:28:08.512Z,12.40
2018-01-26T09:30:37.568Z,13.00
2018-01-26T09:33:06.603Z,13.50
2018-01-26T09:35:35.666Z,14.10
2018-01-26T09:38:04.697Z,14.50
2018-01-26T09:40:34.547Z,15.40
2018-01-26T09:43:03.598Z,15.30
2018-01-26T09:45:32.659Z,15.80
2018-01-26T09:48:01.686Z,16.20
2018-01-26T09:50:30.749Z,16.70
2018-01-26T09:52:59.775Z,16.90
2018-01-26T09:55:28.844Z,17.00
2018-01-26T09:57:58.812Z,16.80
2018-01-26T10:00:28.655Z,15.90
2018-01-26T10:02:58.451Z,15.20
2018-01-26T10:05:27.470Z,15.10
2018-01-26T10:08:15.922Z,14.50
2018-01-26T10:10:45.017Z,13.90
2018-01-26T10:13:14.053Z,13.40
2018-01-26T10:15:43.082Z,13.20
2018-01-26T10:18:12.153Z,13.00
2018-01-26T10:20:41.202Z,13.00
2018-01-26T10:23:10.293Z,13.00
2018-01-26T10:25:39.332Z,13.10
2018-01-26T10:28:09.179Z,13.60
2018-01-26T10:30:38.225Z,13.50
2018-01-26T10:33:07.309Z,13.70
2018-01-26T10:35:37.152Z,13.90
2018-01-26T10:38:06.250Z,13.90
2018-01-26T10:40:35.288Z,14.10
2018-01-26T10:43:04.387Z,14.40
2018-01-26T10:45:33.427Z,14.60
2018-01-26T10:48:02.496Z,14.60
2018-01-26T10:50:31.561Z,14.70
2018-01-26T10:53:00.580Z,14.70
2018-01-26T10:55:29.643Z,15.00
2018-01-26T10:57:58.674Z,15.50
2018-01-26T11:00:27.762Z,15.80
2018-01-26T11:02:56.786Z,15.80
2018-01-26T11:05:26.616Z,15.40
2018-01-26T11:08:03.038Z,15.40
2018-01-26T11:10:32.480Z,15.20
2018-01-26T11:13:01.505Z,15.10
2018-01-26T11:15:30.518Z,14.90
2018-01-26T11:17:59.574Z,14.80
2018-01-26T11:20:28.603Z,14.70
2018-01-26T11:22:57.684Z,14.70
2018-01-26T11:25:26.698Z,14.70
2018-01-26T11:27:55.753Z,14.70
2018-01-26T11:30:24.773Z,14.70
2018-01-26T11:32:53.838Z,14.60
2018-01-26T11:35:22.860Z,14.50
2018-01-26T11:37:51.935Z,14.30
2018-01-26T11:40:20.964Z,14.20
2018-01-26T11:42:50.046Z,14.10
2018-01-26T11:45:19.075Z,14.00
2018-01-26T11:47:48.095Z,13.90
2018-01-26T11:50:17.163Z,13.80
2018-01-26T11:52:47.031Z,13.70
2018-01-26T11:55:16.078Z,13.70
2018-01-26T11:57:45.888Z,13.80
2018-01-26T12:00:14.947Z,13.70
2018-01-26T12:02:43.977Z,13.70
2018-01-26T12:05:13.807Z,13.80
2018-01-26T12:07:42.839Z,13.70
2018-01-26T12:10:25.871Z,14.10
2018-01-26T12:12:54.896Z,14.30
2018-01-26T12:15:24.742Z,14.80
2018-01-26T12:18:15.331Z,14.80
2018-01-26T12:20:44.412Z,15.10
2018-01-26T12:23:14.198Z,15.60
2018-01-26T12:25:43.239Z,15.50
2018-01-26T12:28:12.285Z,15.50
2018-01-26T12:30:41.316Z,15.40
2018-01-26T12:33:10.383Z,15.40
2018-01-26T12:35:41.354Z,15.50
2018-01-26T12:38:10.421Z,15.90
2018-01-26T12:40:40.224Z,15.90
2018-01-26T12:43:09.607Z,15.80
2018-01-26T12:45:38.743Z,15.70
2018-01-26T12:48:07.888Z,15.40
2018-01-26T12:50:37.308Z,15.20
2018-01-26T12:53:07.131Z,14.70
2018-01-26T12:55:36.196Z,14.60
2018-01-26T12:58:05.223Z,14.50
2018-01-26T13:00:34.290Z,14.30
2018-01-26T13:03:22.560Z,14.10
2018-01-26T13:05:51.656Z,13.90
2018-01-26T13:08:20.705Z,13.80
2018-01-26T13:10:49.763Z,13.80
2018-01-26T13:13:26.040Z,14.20
2018-01-26T13:15:55.117Z,14.10
2018-01-26T13:18:24.912Z,14.50
2018-01-26T13:20:55.918Z,14.40
2018-01-26T13:23:25.978Z,14.50
2018-01-26T13:26:24.896Z,14.40
2018-01-26T13:28:55.928Z,14.40
2018-01-26T13:31:31.632Z,14.10
2018-01-26T13:34:00.662Z,14.00
2018-01-26T13:36:30.512Z,13.70
2018-01-26T13:39:05.516Z,13.60
2018-01-26T13:41:35.684Z,13.50
2018-01-26T13:44:05.802Z,13.50
2018-01-26T13:46:35.291Z,13.50
2018-01-26T13:49:05.117Z,13.60
2018-01-26T13:51:34.392Z,13.90
2018-01-26T13:54:03.623Z,14.20
2018-01-26T13:56:32.804Z,14.50
2018-01-26T13:59:02.286Z,14.60
2018-01-26T14:01:31.730Z,14.50
2018-01-26T14:04:01.209Z,14.30
2018-01-26T14:06:31.563Z,14.00
2018-01-26T14:09:01.127Z,14.00
2018-01-26T14:11:30.812Z,13.90
2018-01-26T14:14:00.745Z,13.60
2018-01-26T14:16:31.074Z,13.50
2018-01-26T14:19:00.261Z,13.40
2018-01-26T14:21:29.734Z,13.40
2018-01-26T14:23:58.799Z,13.20
2018-01-26T14:26:31.932Z,13.00
2018-01-26T14:29:02.083Z,12.90
2018-01-26T14:31:31.151Z,12.80
2018-01-26T14:34:00.980Z,12.40
2018-01-26T14:36:30.055Z,12.40
2018-01-26T14:38:59.208Z,12.30
2018-01-26T14:41:28.296Z,12.20
2018-01-26T14:43:57.603Z,12.10
2018-01-26T14:46:27.634Z,12.00
2018-01-26T14:48:57.507Z,12.00
2018-01-26T14:51:26.810Z,11.90
2018-01-26T14:53:55.912Z,12.00
2018-01-26T14:56:25.037Z,12.00
2018-01-26T14:58:54.082Z,12.00
2018-01-26T15:01:26.530Z,11.90
2018-01-26T15:03:56.704Z,11.70
2018-01-26T15:06:25.862Z,11.60
2018-01-26T15:08:55.697Z,11.70
2018-01-26T15:11:24.781Z,11.70
2018-01-26T15:13:54.067Z,11.60
2018-01-26T15:16:23.867Z,11.60
2018-01-26T15:18:52.935Z,11.60
2018-01-26T15:21:21.989Z,11.60
2018-01-26T15:23:51.372Z,11.40
2018-01-26T15:26:21.204Z,11.40
2018-01-26T15:28:50.250Z,11.40
2018-01-26T15:31:19.317Z,11.40
2018-01-26T15:33:59.303Z,11.40
2018-01-26T15:36:28.417Z,11.30
2018-01-26T15:39:29.103Z,11.20
2018-01-26T15:41:58.140Z,11.10
2018-01-26T15:44:27.287Z,11.00
2018-01-26T15:46:56.315Z,11.00
2018-01-26T15:49:25.346Z,10.90
2018-01-26T15:51:55.597Z,10.70
2018-01-26T15:54:28.033Z,10.60
2018-01-26T15:56:57.882Z,10.50
2018-01-26T15:59:26.936Z,10.40
2018-01-26T16:01:56.002Z,10.50
2018-01-26T16:04:25.112Z,10.40
2018-01-26T16:07:03.207Z,10.30
2018-01-26T16:09:32.257Z,10.20
2018-01-26T16:12:01.314Z,10.20
2018-01-26T16:14:30.343Z,10.10
2018-01-26T16:16:59.407Z,10.10
2018-01-26T16:19:28.424Z,10.10
2018-01-26T16:22:00.329Z,10.10
2018-01-26T16:24:29.346Z,10.10
2018-01-26T16:26:58.379Z,10.10
2018-01-26T16:29:27.477Z,10.10
2018-01-26T16:32:03.495Z,10.00
2018-01-26T16:34:36.309Z,9.90
2018-01-26T16:37:13.290Z,9.80
2018-01-26T16:40:00.589Z,9.90
2018-01-26T16:42:33.700Z,9.80
2018-01-26T16:45:04.993Z,9.70
2018-01-26T16:50:24.913Z,9.60
2018-01-26T16:52:56.433Z,9.60
2018-01-26T16:55:46.268Z,9.50
2018-01-26T17:01:36.582Z,9.60
2018-01-26T17:06:45.412Z,9.50
2018-01-26T17:09:19.279Z,9.50
2018-01-26T17:14:38.889Z,9.50
2018-01-26T17:17:07.954Z,9.50
2018-01-26T17:19:36.957Z,9.40
2018-01-26T17:22:05.970Z,9.40
2018-01-26T17:24:35.022Z,9.30
2018-01-26T17:27:04.796Z,9.20
2018-01-26T17:29:37.384Z,9.20
2018-01-26T17:32:07.466Z,9.20
2018-01-26T17:34:37.680Z,9.00
2018-01-26T17:37:06.731Z,9.00
2018-01-26T17:39:35.986Z,9.00
2018-01-26T17:42:04.995Z,9.00
2018-01-26T17:44:34.087Z,9.00
2018-01-26T17:47:03.228Z,9.00
2018-01-26T17:49:32.246Z,9.00
2018-01-26T17:52:05.871Z,9.00
2018-01-26T17:54:34.897Z,9.00
2018-01-26T17:57:05.065Z,9.00
2018-01-26T17:59:34.151Z,9.00
2018-01-26T18:02:03.255Z,9.10
2018-01-26T18:04:32.275Z,9.00
2018-01-26T18:07:01.331Z,9.00
2018-01-26T18:09:30.346Z,9.00
2018-01-26T18:11:59.468Z,9.00
2018-01-26T18:14:29.283Z,9.00
2018-01-26T18:16:58.330Z,8.90
2018-01-26T18:19:27.390Z,9.00
2018-01-26T18:21:56.547Z,9.00
2018-01-26T18:24:28.780Z,9.00
2018-01-26T18:32:11.526Z,9.00
2018-01-26T18:34:40.725Z,9.10
2018-01-26T18:37:10.919Z,9.00
2018-01-26T18:39:40.138Z,9.00
2018-01-26T18:42:09.370Z,9.00
2018-01-26T18:44:40.584Z,9.00
2018-01-26T18:47:12.097Z,9.00
2018-01-26T18:49:42.413Z,9.00
2018-01-26T18:52:11.523Z,9.10
2018-01-26T18:54:43.581Z,8.90
2018-01-26T18:57:12.891Z,8.90
2018-01-26T18:59:44.262Z,9.00
2018-01-26T19:02:15.830Z,9.00
2018-01-26T19:04:44.947Z,8.90
2018-01-26T19:07:14.128Z,8.90
2018-01-26T19:09:43.220Z,8.90
2018-01-26T19:12:12.381Z,8.80
2018-01-26T19:14:42.690Z,8.80
2018-01-26T19:17:11.948Z,8.80
2018-01-26T19:19:41.084Z,8.70
2018-01-26T19:22:11.064Z,8.70
2018-01-26T19:24:40.111Z,8.60
2018-01-26T19:27:09.927Z,8.70
2018-01-26T19:29:39.096Z,8.60
2018-01-26T19:32:08.215Z,8.70
2018-01-26T19:34:37.312Z,8.60
2018-01-26T19:37:06.485Z,8.60
2018-01-26T19:39:36.255Z,8.60
2018-01-26T19:42:05.454Z,8.50
2018-01-26T19:44:34.542Z,8.60
2018-01-26T19:47:03.851Z,8.50
2018-01-26T19:49:36.850Z,8.50
2018-01-26T19:52:05.935Z,8.50
2018-01-26T19:54:34.995Z,8.50
2018-01-26T19:57:04.530Z,8.40
2018-01-26T19:59:33.830Z,8.40
2018-01-26T20:02:03.198Z,8.40
2018-01-26T20:04:40.005Z,8.40
2018-01-26T20:07:33.819Z,8.50
2018-01-26T20:10:03.183Z,8.40
2018-01-26T20:12:43.194Z,8.40
2018-01-26T20:15:12.821Z,8.40
2018-01-26T20:17:42.028Z,8.40
2018-01-26T20:20:11.322Z,8.40
2018-01-26T20:22:42.543Z,8.30
2018-01-26T20:25:11.873Z,8.30
2018-01-26T20:27:41.288Z,8.30
2018-01-26T20:30:10.852Z,8.30
2018-01-26T20:32:40.087Z,8.30
2018-01-26T20:35:09.515Z,8.20
2018-01-26T20:37:39.738Z,8.10
2018-01-26T20:40:09.365Z,8.10
2018-01-26T20:42:38.560Z,8.10
2018-01-26T20:45:07.781Z,8.10
2018-01-26T20:47:37.034Z,8.20
2018-01-26T20:50:06.449Z,8.20
2018-01-26T20:52:35.811Z,8.20
2018-01-26T20:55:09.568Z,8.10
2018-01-26T20:57:39.269Z,8.10
2018-01-26T21:00:10.966Z,8.20
2018-01-26T21:02:46.619Z,8.20
2018-01-26T21:05:19.055Z,8.20
2018-01-26T21:10:27.786Z,8.10
2018-01-26T21:12:59.265Z,8.00
2018-01-26T21:15:28.789Z,7.90
2018-01-26T21:17:57.980Z,8.00
2018-01-26T21:20:28.445Z,8.00
2018-01-26T21:22:57.919Z,8.00
2018-01-26T21:25:27.018Z,8.00
2018-01-26T21:27:56.261Z,8.00
2018-01-26T21:30:28.456Z,8.00
2018-01-26T21:33:00.839Z,8.00
2018-01-26T21:35:32.777Z,8.10
2018-01-26T21:38:09.177Z,8.10
2018-01-26T21:40:40.162Z,8.10
2018-01-26T21:43:09.413Z,8.20
2018-01-26T21:45:38.833Z,8.10
2018-01-26T21:48:08.092Z,8.20
2018-01-26T21:50:43.978Z,8.20
2018-01-26T21:53:19.632Z,8.20
2018-01-26T21:55:55.455Z,8.30
2018-01-26T21:58:27.717Z,8.20
2018-01-26T22:01:06.475Z,8.30
2018-01-26T22:03:37.633Z,8.30
2018-01-26T22:06:14.017Z,8.40
2018-01-26T22:08:47.381Z,8.30
2018-01-26T22:11:19.180Z,8.40
2018-01-26T22:13:51.050Z,8.30
2018-01-26T22:16:41.692Z,8.40
2018-01-26T22:19:11.781Z,8.40
2018-01-26T22:21:44.159Z,8.40
2018-01-26T22:24:15.574Z,8.30
2018-01-26T22:26:46.037Z,8.30
2018-01-26T22:29:33.884Z,8.30
2018-01-26T22:32:03.254Z,8.30
2018-01-26T22:34:34.532Z,8.30
2018-01-26T22:37:04.175Z,8.30
2018-01-26T22:39:37.758Z,8.40
2018-01-26T22:42:09.919Z,8.40
2018-01-26T22:44:39.618Z,8.40
2018-01-26T22:47:09.076Z,8.40
2018-01-26T22:49:42.912Z,8.50
2018-01-26T22:52:12.461Z,8.50
2018-01-26T22:54:41.780Z,8.60
2018-01-26T22:57:10.968Z,8.70
2018-01-26T22:59:40.222Z,8.70
2018-01-26T23:02:09.645Z,8.80
2018-01-26T23:04:39.556Z,8.90
2018-01-26T23:07:10.014Z,8.80
2018-01-26T23:09:39.463Z,8.90
2018-01-26T23:12:08.839Z,9.00
2018-01-26T23:14:38.179Z,9.00
2018-01-26T23:17:08.100Z,9.10
2018-01-26T23:19:40.238Z,9.10
2018-01-26T23:22:09.443Z,9.00
2018-01-26T23:24:38.568Z,9.00
2018-01-26T23:27:08.088Z,9.00
2018-01-26T23:29:38.436Z,9.00
2018-01-26T23:32:07.880Z,9.00
2018-01-26T23:34:37.230Z,9.10
2018-01-26T23:37:06.301Z,9.10
2018-01-26T23:39:36.389Z,9.20
2018-01-26T23:42:05.411Z,9.10
2018-01-26T23:44:34.923Z,9.10
2018-01-26T23:47:04.707Z,9.20
2018-01-26T23:49:33.777Z,9.20
2018-01-26T23:57:00.314Z,9.30
